Allen, Washington
Current Conditions -  °F | °C
As of 12:35 AM on Friday 28 Nov 2014 (Local Time) from KBVS Reporting Station
Overcast Overcast  
Wind Chill: 13°   Ceiling: 1700
Heat Index: 13°   Visibility: 10mi
Dew Point: 11°   Wind: 13mph
Humidity: 88%   Direction: 180°S
Pressure: 29.6"   Gusts: NA
Location:  48.5689°N, 122.407°W
Report Text: KBVS 280835Z AUTO 18011KT 10SM OVC017 13/11 A2960 RMK A01 P000
Loading
Personal Weather Stations






























Interactive Weather Map New forecast layout! Learn more

10-Day Weather Forecast

Advertisements
Track Severe Weather on mobile